createdAt,value
2017-08-24T00:02:05.682Z,8.73
2017-08-24T00:04:33.701Z,8.47
2017-08-24T00:07:01.301Z,6.13
2017-08-24T00:09:28.944Z,5.20
2017-08-24T00:11:56.887Z,5.10
2017-08-24T00:14:24.455Z,5.27
2017-08-24T00:16:52.082Z,5.63
2017-08-24T00:19:20.004Z,5.73
2017-08-24T00:21:47.610Z,5.00
2017-08-24T00:24:15.447Z,5.10
2017-08-24T00:26:43.035Z,5.53
2017-08-24T00:29:10.685Z,4.70
2017-08-24T00:31:38.304Z,5.27
2017-08-24T00:34:05.971Z,4.90
2017-08-24T00:36:33.570Z,5.60
2017-08-24T00:39:01.235Z,5.27
2017-08-24T00:41:30.126Z,5.00
2017-08-24T00:43:57.820Z,4.77
2017-08-24T00:46:25.459Z,5.10
2017-08-24T00:48:53.338Z,4.90
2017-08-24T00:51:20.962Z,5.50
2017-08-24T00:53:48.571Z,5.00
2017-08-24T00:56:16.207Z,5.20
2017-08-24T00:58:44.244Z,5.00
2017-08-24T01:01:11.897Z,5.10
2017-08-24T01:03:39.474Z,4.90
2017-08-24T01:06:07.941Z,5.57
2017-08-24T01:08:35.576Z,4.90
2017-08-24T01:11:03.248Z,5.40
2017-08-24T01:13:30.827Z,5.70
2017-08-24T01:15:58.404Z,5.27
2017-08-24T01:18:25.938Z,5.03
2017-08-24T01:20:53.509Z,4.93
2017-08-24T01:23:21.120Z,5.37
2017-08-24T01:25:48.695Z,5.80
2017-08-24T01:28:16.246Z,5.30
2017-08-24T01:30:44.204Z,4.93
2017-08-24T01:33:11.767Z,5.20
2017-08-24T01:35:39.314Z,5.87
2017-08-24T01:38:06.911Z,5.70
2017-08-24T01:40:34.469Z,5.40
2017-08-24T01:43:03.211Z,6.00
2017-08-24T01:45:30.844Z,5.43
2017-08-24T01:47:58.388Z,5.73
2017-08-24T01:50:25.912Z,5.23
2017-08-24T01:52:53.540Z,5.43
2017-08-24T01:55:21.097Z,5.70
2017-08-24T01:57:48.609Z,5.50
2017-08-24T02:00:16.243Z,5.70
2017-08-24T02:02:43.812Z,5.20
2017-08-24T02:05:11.346Z,5.57
2017-08-24T02:07:38.923Z,5.30
2017-08-24T02:10:06.536Z,5.30
2017-08-24T02:12:34.299Z,4.43
2017-08-24T02:15:01.886Z,5.73
2017-08-24T02:17:29.670Z,5.60
2017-08-24T02:19:58.895Z,5.73
2017-08-24T02:22:26.646Z,4.80
2017-08-24T02:24:54.192Z,4.90
2017-08-24T02:27:21.905Z,5.20
2017-08-24T02:29:50.131Z,5.97
2017-08-24T02:32:17.803Z,6.07
2017-08-24T02:34:45.330Z,5.30
2017-08-24T02:37:13.110Z,5.50
2017-08-24T02:39:40.741Z,5.73
2017-08-24T02:42:08.335Z,6.20
2017-08-24T02:44:36.107Z,5.57
2017-08-24T02:47:03.716Z,5.50
2017-08-24T02:49:31.329Z,5.00
2017-08-24T02:51:58.911Z,5.37
2017-08-24T02:54:26.585Z,5.70
2017-08-24T02:56:54.129Z,6.17
2017-08-24T02:59:21.771Z,6.10
2017-08-24T03:01:49.378Z,6.37
2017-08-24T03:04:17.518Z,6.13
2017-08-24T03:06:45.340Z,5.97
2017-08-24T03:09:12.919Z,6.17
2017-08-24T03:11:40.504Z,6.10
2017-08-24T03:14:08.063Z,7.23
2017-08-24T03:16:35.604Z,6.70
2017-08-24T03:19:03.137Z,6.10
2017-08-24T03:21:30.707Z,6.67
2017-08-24T03:23:58.333Z,5.77
2017-08-24T03:26:25.874Z,6.03
2017-08-24T03:28:54.351Z,6.33
2017-08-24T03:31:21.927Z,5.83
2017-08-24T03:33:49.477Z,6.70
2017-08-24T03:36:17.227Z,6.63
2017-08-24T03:38:44.877Z,7.87
2017-08-24T03:41:12.522Z,7.30
2017-08-24T03:43:40.066Z,8.17
2017-08-24T03:46:07.829Z,7.00
2017-08-24T03:48:35.588Z,7.53
2017-08-24T03:51:03.136Z,6.70
2017-08-24T03:53:30.729Z,6.90
2017-08-24T03:55:58.301Z,8.13
2017-08-24T03:58:25.901Z,8.47
2017-08-24T04:00:53.557Z,9.27
2017-08-24T04:03:21.131Z,8.50
2017-08-24T04:05:48.706Z,8.40
2017-08-24T04:08:17.197Z,8.40
2017-08-24T04:10:52.019Z,9.10
2017-08-24T04:15:58.461Z,8.50
2017-08-24T04:18:27.368Z,8.87
2017-08-24T04:20:54.969Z,8.23
2017-08-24T04:23:23.044Z,8.30
2017-08-24T04:25:52.135Z,8.63
2017-08-24T04:28:20.017Z,9.80
2017-08-24T04:31:00.673Z,9.13
2017-08-24T04:37:06.866Z,8.87
2017-08-24T04:39:58.090Z,8.47
2017-08-24T04:42:30.303Z,9.97
2017-08-24T04:45:03.020Z,10.90
2017-08-24T04:47:30.618Z,12.17
2017-08-24T04:49:58.427Z,10.60
2017-08-24T04:52:25.983Z,11.03
2017-08-24T04:54:53.660Z,9.40
2017-08-24T04:57:21.210Z,8.83
2017-08-24T04:59:48.804Z,8.67
2017-08-24T05:02:16.424Z,10.20
2017-08-24T05:04:44.194Z,9.57
2017-08-24T05:07:11.734Z,8.67
2017-08-24T05:09:39.382Z,9.40
2017-08-24T05:12:07.216Z,9.37
2017-08-24T05:14:34.966Z,8.83
2017-08-24T05:17:02.584Z,8.33
2017-08-24T05:19:30.220Z,9.70
2017-08-24T05:21:57.815Z,9.03
2017-08-24T05:24:25.472Z,11.90
2017-08-24T05:26:53.331Z,9.20
2017-08-24T05:29:22.108Z,9.80
2017-08-24T05:31:50.652Z,8.87
2017-08-24T05:34:29.484Z,9.13
2017-08-24T05:36:59.824Z,9.10
2017-08-24T05:39:30.548Z,8.93
2017-08-24T05:41:58.163Z,11.20
2017-08-24T05:44:25.880Z,9.23
2017-08-24T05:46:54.599Z,9.10
2017-08-24T05:49:22.181Z,9.40
2017-08-24T05:51:49.775Z,10.47
2017-08-24T05:54:17.344Z,8.90
2017-08-24T05:56:45.106Z,10.00
2017-08-24T05:59:12.725Z,9.53
2017-08-24T06:01:40.370Z,9.67
2017-08-24T06:04:07.903Z,10.17
2017-08-24T06:06:35.462Z,9.27
2017-08-24T06:09:03.065Z,10.80
2017-08-24T06:11:30.637Z,11.80
2017-08-24T06:14:07.846Z,10.57
2017-08-24T06:16:35.411Z,9.10
2017-08-24T06:19:02.952Z,8.70
2017-08-24T06:21:30.549Z,10.10
2017-08-24T06:23:58.112Z,9.57
2017-08-24T06:26:25.646Z,9.43
2017-08-24T06:28:53.227Z,9.90
2017-08-24T06:31:20.835Z,12.50
2017-08-24T06:33:48.381Z,18.93
2017-08-24T06:36:15.914Z,15.13
2017-08-24T06:38:43.548Z,10.13
2017-08-24T06:41:11.133Z,10.47
2017-08-24T06:43:38.694Z,10.97
2017-08-24T06:46:06.284Z,10.70
2017-08-24T06:48:33.877Z,10.07
2017-08-24T06:51:01.413Z,11.00
2017-08-24T06:53:29.001Z,10.17
2017-08-24T06:55:56.597Z,12.33
2017-08-24T06:58:24.193Z,10.73
2017-08-24T07:00:51.895Z,9.93
2017-08-24T07:03:19.751Z,10.40
2017-08-24T07:05:48.342Z,10.67
2017-08-24T07:08:15.898Z,10.30
2017-08-24T07:10:43.417Z,9.73
2017-08-24T07:13:11.033Z,10.93
2017-08-24T07:15:38.633Z,11.03
2017-08-24T07:18:08.400Z,9.93
2017-08-24T07:20:36.062Z,9.50
2017-08-24T07:23:03.665Z,9.00
2017-08-24T07:25:31.170Z,9.10
2017-08-24T07:27:58.916Z,8.03
2017-08-24T07:30:26.555Z,8.73
2017-08-24T07:32:54.139Z,7.83
2017-08-24T07:35:22.220Z,7.73
2017-08-24T07:37:49.764Z,9.23
2017-08-24T07:40:17.508Z,10.93
2017-08-24T07:42:45.072Z,12.10
2017-08-24T07:45:12.681Z,8.70
2017-08-24T07:47:40.281Z,8.20
2017-08-24T07:50:07.841Z,8.97
2017-08-24T07:52:35.468Z,8.20
2017-08-24T07:55:04.177Z,7.80
2017-08-24T07:57:31.949Z,6.63
2017-08-24T07:59:59.902Z,7.43
2017-08-24T08:02:27.501Z,6.43
2017-08-24T08:04:55.071Z,6.43
2017-08-24T08:07:22.590Z,8.00
2017-08-24T08:09:50.259Z,7.73
2017-08-24T08:12:17.788Z,6.10
2017-08-24T08:14:45.347Z,6.13
2017-08-24T08:17:12.910Z,7.33
2017-08-24T08:19:41.468Z,6.00
2017-08-24T08:22:08.978Z,5.83
2017-08-24T08:24:36.560Z,5.50
2017-08-24T08:27:04.102Z,4.90
2017-08-24T08:29:31.667Z,5.90
2017-08-24T08:31:59.227Z,5.80
2017-08-24T08:34:26.788Z,5.53
2017-08-24T08:36:54.327Z,5.50
2017-08-24T08:39:21.914Z,6.00
2017-08-24T08:41:49.579Z,5.03
2017-08-24T08:44:17.145Z,4.57
2017-08-24T08:46:44.729Z,4.70
2017-08-24T08:49:12.293Z,5.07
2017-08-24T08:51:40.591Z,5.17
2017-08-24T08:54:08.201Z,4.40
2017-08-24T08:56:35.764Z,4.10
2017-08-24T08:59:03.327Z,4.60
2017-08-24T09:01:30.897Z,4.20
2017-08-24T09:03:58.433Z,4.40
2017-08-24T09:06:25.976Z,4.57
2017-08-24T09:08:53.543Z,5.23
2017-08-24T09:11:21.327Z,4.67
2017-08-24T09:13:48.859Z,4.50
2017-08-24T09:16:16.472Z,5.03
2017-08-24T09:18:44.013Z,4.60
2017-08-24T09:21:12.108Z,4.43
2017-08-24T09:23:39.666Z,4.50
2017-08-24T09:26:08.327Z,5.07
2017-08-24T09:28:35.891Z,4.07
2017-08-24T09:31:03.468Z,4.33
2017-08-24T09:33:31.036Z,4.13
2017-08-24T09:35:58.585Z,4.50
2017-08-24T09:38:26.802Z,4.20
2017-08-24T09:40:54.366Z,3.80
2017-08-24T09:43:21.916Z,4.90
2017-08-24T09:45:50.349Z,4.33
2017-08-24T09:48:17.874Z,4.93
2017-08-24T09:50:45.631Z,4.47
2017-08-24T09:53:13.389Z,5.80
2017-08-24T09:55:40.914Z,4.53
2017-08-24T09:58:08.503Z,4.77
2017-08-24T10:00:36.232Z,4.80
2017-08-24T10:03:03.822Z,6.80
2017-08-24T10:05:32.145Z,5.10
2017-08-24T10:07:59.720Z,4.07
2017-08-24T10:10:27.257Z,4.50
2017-08-24T10:12:54.841Z,4.43
2017-08-24T10:15:22.422Z,4.10
2017-08-24T10:17:50.217Z,4.03
2017-08-24T10:20:17.743Z,4.50
2017-08-24T10:22:45.339Z,4.80
2017-08-24T10:25:12.866Z,4.10
2017-08-24T10:27:40.648Z,5.10
2017-08-24T10:30:08.584Z,3.83
2017-08-24T10:32:37.002Z,3.80
2017-08-24T10:35:04.550Z,4.80
2017-08-24T10:37:32.118Z,4.30
2017-08-24T10:39:59.653Z,3.63
2017-08-24T10:42:27.217Z,3.73
2017-08-24T10:44:54.783Z,4.20
2017-08-24T10:47:22.391Z,4.40
2017-08-24T10:49:49.972Z,3.37
2017-08-24T10:52:17.574Z,4.37
2017-08-24T10:54:45.159Z,4.30
2017-08-24T10:57:12.712Z,5.20
2017-08-24T10:59:40.278Z,3.53
2017-08-24T11:02:08.097Z,3.80
2017-08-24T11:04:35.596Z,3.97
2017-08-24T11:07:03.141Z,3.30
2017-08-24T11:09:30.742Z,3.70
2017-08-24T11:11:58.339Z,2.87
2017-08-24T11:14:25.887Z,3.47
2017-08-24T11:16:53.784Z,3.90
2017-08-24T11:19:22.225Z,3.70
2017-08-24T11:21:49.775Z,3.50
2017-08-24T11:24:17.696Z,3.80
2017-08-24T11:26:45.223Z,3.40
2017-08-24T11:29:12.761Z,4.60
2017-08-24T11:31:40.321Z,3.60
2017-08-24T11:34:07.865Z,4.43
2017-08-24T11:36:35.432Z,3.60
2017-08-24T11:39:03.100Z,3.97
2017-08-24T11:41:30.873Z,3.70
2017-08-24T11:43:58.417Z,3.30
2017-08-24T11:46:25.992Z,3.97
2017-08-24T11:48:53.539Z,3.70
2017-08-24T11:51:21.050Z,3.47
2017-08-24T11:53:48.624Z,3.47
2017-08-24T11:56:16.426Z,3.73
2017-08-24T11:58:43.985Z,4.40
2017-08-24T12:01:11.559Z,3.20
2017-08-24T12:03:39.103Z,3.67
2017-08-24T12:06:06.659Z,3.40
2017-08-24T12:08:34.239Z,3.40
2017-08-24T12:11:01.763Z,3.40
2017-08-24T12:13:29.286Z,3.50
2017-08-24T12:15:57.117Z,3.20
2017-08-24T12:18:24.638Z,3.40
2017-08-24T12:20:52.235Z,3.23
2017-08-24T12:23:19.825Z,3.27
2017-08-24T12:25:47.371Z,5.40
2017-08-24T12:28:15.282Z,3.40
2017-08-24T12:30:42.949Z,4.20
2017-08-24T12:33:10.453Z,3.80
2017-08-24T12:35:37.976Z,3.30
2017-08-24T12:38:05.541Z,3.23
2017-08-24T12:40:33.062Z,4.00
2017-08-24T12:43:01.374Z,3.57
2017-08-24T12:45:28.948Z,3.40
2017-08-24T12:47:56.516Z,6.10
2017-08-24T12:50:24.094Z,4.97
2017-08-24T12:52:51.903Z,3.60
2017-08-24T12:55:19.464Z,3.47
2017-08-24T12:57:47.041Z,3.40
2017-08-24T13:00:14.856Z,4.13
2017-08-24T13:02:48.687Z,5.17
2017-08-24T13:05:16.263Z,4.60
2017-08-24T13:07:44.739Z,4.00
2017-08-24T13:10:12.260Z,3.50
2017-08-24T13:12:42.128Z,3.30
2017-08-24T13:15:09.716Z,3.27
2017-08-24T13:17:37.309Z,3.40
2017-08-24T13:20:04.887Z,3.60
2017-08-24T13:22:32.401Z,3.43
2017-08-24T13:24:59.999Z,3.67
2017-08-24T13:27:27.571Z,4.20
2017-08-24T13:29:55.220Z,4.27
2017-08-24T13:32:22.810Z,4.37
2017-08-24T13:34:50.353Z,3.57
2017-08-24T13:37:17.865Z,4.83
2017-08-24T13:39:45.441Z,3.77
2017-08-24T13:42:13.191Z,4.17
2017-08-24T13:44:40.728Z,3.60
2017-08-24T13:47:08.286Z,3.30
2017-08-24T13:49:35.916Z,3.50
2017-08-24T13:52:03.427Z,3.60
2017-08-24T13:54:31.029Z,3.93
2017-08-24T13:56:58.556Z,3.33
2017-08-24T13:59:26.346Z,3.43
2017-08-24T14:01:53.932Z,3.57
2017-08-24T14:04:21.464Z,4.10
2017-08-24T14:06:48.981Z,3.80
2017-08-24T14:09:16.929Z,3.20
2017-08-24T14:11:44.482Z,3.40
2017-08-24T14:14:12.016Z,3.40
2017-08-24T14:16:39.611Z,5.47
2017-08-24T14:19:07.224Z,4.50
2017-08-24T14:21:34.764Z,3.73
2017-08-24T14:24:03.440Z,3.97
2017-08-24T14:26:31.020Z,3.40
2017-08-24T14:28:59.556Z,3.83
2017-08-24T14:31:27.163Z,3.57
2017-08-24T14:33:54.893Z,3.67
2017-08-24T14:36:22.495Z,4.13
2017-08-24T14:38:50.046Z,3.60
2017-08-24T14:41:17.623Z,3.57
2017-08-24T14:43:45.152Z,3.43
2017-08-24T14:46:12.704Z,4.70
2017-08-24T14:48:40.243Z,3.40
2017-08-24T14:51:07.788Z,3.60
2017-08-24T14:53:35.354Z,4.10
2017-08-24T14:56:02.871Z,3.20
2017-08-24T14:58:30.376Z,2.90
2017-08-24T15:00:57.925Z,3.20
2017-08-24T15:03:25.443Z,4.07
2017-08-24T15:05:52.946Z,3.27
2017-08-24T15:08:20.531Z,3.23
2017-08-24T15:10:48.042Z,3.47
2017-08-24T15:13:15.550Z,3.43
2017-08-24T15:15:43.092Z,3.63
2017-08-24T15:18:10.607Z,3.70
2017-08-24T15:20:38.109Z,3.97
2017-08-24T15:23:05.688Z,4.30
2017-08-24T15:25:33.448Z,3.07
2017-08-24T15:28:00.951Z,3.40
2017-08-24T15:30:28.544Z,3.90
2017-08-24T15:32:56.051Z,3.93
2017-08-24T15:35:23.595Z,3.73
2017-08-24T15:37:51.169Z,3.77
2017-08-24T15:40:18.683Z,3.40
2017-08-24T15:42:46.188Z,3.70
2017-08-24T15:45:13.729Z,4.07
2017-08-24T15:47:41.263Z,3.70
2017-08-24T15:50:08.779Z,3.50
2017-08-24T15:52:36.345Z,3.80
2017-08-24T15:55:03.897Z,4.03
2017-08-24T15:57:31.442Z,3.60
2017-08-24T15:59:59.001Z,3.80
2017-08-24T16:02:26.562Z,3.57
2017-08-24T16:04:54.308Z,4.10
2017-08-24T16:07:21.833Z,3.93
2017-08-24T16:09:49.384Z,4.33
2017-08-24T16:12:16.927Z,5.00
2017-08-24T16:14:44.532Z,4.30
2017-08-24T16:17:12.072Z,5.00
2017-08-24T16:19:39.605Z,5.17
2017-08-24T16:22:07.405Z,4.87
2017-08-24T16:24:35.105Z,4.80
2017-08-24T16:27:02.697Z,4.60
2017-08-24T16:29:30.272Z,3.90
2017-08-24T16:31:57.852Z,4.53
2017-08-24T16:34:25.590Z,5.10
2017-08-24T16:36:53.373Z,4.00
2017-08-24T16:39:20.954Z,5.20
2017-08-24T16:41:48.707Z,5.07
2017-08-24T16:44:16.224Z,5.13
2017-08-24T16:46:43.864Z,5.97
2017-08-24T16:49:11.416Z,7.87
2017-08-24T16:51:38.961Z,6.80
2017-08-24T16:54:06.523Z,6.20
2017-08-24T16:56:34.180Z,5.60
2017-08-24T16:59:01.755Z,6.83
2017-08-24T17:01:29.358Z,5.10
2017-08-24T17:03:56.925Z,5.20
2017-08-24T17:06:24.588Z,5.00
2017-08-24T17:08:52.177Z,5.30
2017-08-24T17:11:19.778Z,6.03
2017-08-24T17:13:47.548Z,6.13
2017-08-24T17:16:15.144Z,4.70
2017-08-24T17:18:42.695Z,5.77
2017-08-24T17:21:10.481Z,5.90
2017-08-24T17:23:38.080Z,4.97
2017-08-24T17:26:05.627Z,5.23
2017-08-24T17:28:33.154Z,6.30
2017-08-24T17:31:00.729Z,7.70
2017-08-24T17:33:29.054Z,8.43
2017-08-24T17:35:56.588Z,7.80
2017-08-24T17:38:24.931Z,6.00
2017-08-24T17:40:52.688Z,6.10
2017-08-24T17:43:20.485Z,5.77
2017-08-24T17:45:48.071Z,6.03
2017-08-24T17:48:15.931Z,7.00
2017-08-24T17:50:43.466Z,7.07
2017-08-24T17:53:12.161Z,6.17
2017-08-24T17:55:39.760Z,5.73
2017-08-24T17:58:08.282Z,7.70
2017-08-24T18:00:36.822Z,7.90
2017-08-24T18:03:05.158Z,6.30
2017-08-24T18:05:32.725Z,6.83
2017-08-24T18:08:00.291Z,7.10
2017-08-24T18:10:28.585Z,6.10
2017-08-24T18:12:56.144Z,5.60
2017-08-24T18:15:23.711Z,5.83
2017-08-24T18:17:51.250Z,6.23
2017-08-24T18:20:18.837Z,5.90
2017-08-24T18:22:46.374Z,5.33
2017-08-24T18:25:13.895Z,6.37
2017-08-24T18:27:41.440Z,6.43
2017-08-24T18:35:48.512Z,65.50
2017-08-24T18:38:20.981Z,41.80
2017-08-24T18:43:23.792Z,10.30
2017-08-24T18:45:52.573Z,8.50
2017-08-24T18:48:20.914Z,8.20
2017-08-24T18:50:51.839Z,7.80
2017-08-24T18:53:22.177Z,6.63
2017-08-24T18:55:50.658Z,7.80
2017-08-24T18:58:20.135Z,6.47
2017-08-24T19:00:47.933Z,6.23
2017-08-24T19:03:16.414Z,6.60
2017-08-24T19:05:44.191Z,6.67
2017-08-24T19:08:14.272Z,6.60
2017-08-24T19:10:42.630Z,6.60
2017-08-24T19:13:10.197Z,6.87
2017-08-24T19:15:38.602Z,6.80
2017-08-24T19:18:06.179Z,7.00
2017-08-24T19:20:33.722Z,8.03
2017-08-24T19:23:01.331Z,8.40
2017-08-24T19:25:28.869Z,6.70
2017-08-24T19:27:56.385Z,7.40
2017-08-24T19:30:24.098Z,8.87
2017-08-24T19:32:51.645Z,10.80
2017-08-24T19:35:19.849Z,11.43
2017-08-24T19:37:47.410Z,10.50
2017-08-24T19:40:15.306Z,10.03
2017-08-24T19:42:43.007Z,10.37
2017-08-24T19:45:11.457Z,10.50
2017-08-24T19:47:38.993Z,10.70
2017-08-24T19:50:07.713Z,10.17
2017-08-24T19:52:35.350Z,10.97
2017-08-24T19:55:02.886Z,9.63
2017-08-24T19:57:31.872Z,8.93
2017-08-24T19:59:59.443Z,9.30
2017-08-24T20:02:26.998Z,9.93
2017-08-24T20:04:55.591Z,10.40
2017-08-24T20:07:26.117Z,10.70
2017-08-24T20:09:53.763Z,11.70
2017-08-24T20:12:23.597Z,12.10
2017-08-24T20:14:52.196Z,11.07
2017-08-24T20:17:20.793Z,13.50
2017-08-24T20:19:48.792Z,12.33
2017-08-24T20:22:16.349Z,12.33
2017-08-24T20:24:43.941Z,10.93
2017-08-24T20:27:11.497Z,11.60
2017-08-24T20:29:39.573Z,10.60
2017-08-24T20:32:07.188Z,11.40
2017-08-24T20:34:35.406Z,10.77
2017-08-24T20:37:02.973Z,13.83
2017-08-24T20:39:30.533Z,11.07
2017-08-24T20:41:58.489Z,11.03
2017-08-24T20:44:26.043Z,10.40
2017-08-24T20:46:54.897Z,12.10
2017-08-24T20:49:23.333Z,12.17
2017-08-24T20:51:51.764Z,11.57
2017-08-24T20:54:19.411Z,11.30
2017-08-24T20:56:47.911Z,11.23
2017-08-24T20:59:16.755Z,11.50
2017-08-24T21:01:44.620Z,10.80
2017-08-24T21:04:14.010Z,10.87
2017-08-24T21:06:42.253Z,11.00
2017-08-24T21:09:09.836Z,10.00
2017-08-24T21:11:38.431Z,10.37
2017-08-24T21:14:05.961Z,9.73
2017-08-24T21:16:34.282Z,9.30
2017-08-24T21:19:03.973Z,8.30
2017-08-24T21:21:31.476Z,8.40
2017-08-24T21:23:59.036Z,9.97
2017-08-24T21:26:26.631Z,10.20
2017-08-24T21:28:54.195Z,8.60
2017-08-24T21:31:22.325Z,8.13
2017-08-24T21:33:50.890Z,9.37
2017-08-24T21:36:18.427Z,9.37
2017-08-24T21:38:47.487Z,9.70
2017-08-24T21:41:15.829Z,9.50
2017-08-24T21:43:44.169Z,8.03
2017-08-24T21:46:11.741Z,8.60
2017-08-24T21:48:39.299Z,7.10
2017-08-24T21:51:06.814Z,7.13
2017-08-24T21:53:34.822Z,6.80
2017-08-24T21:56:02.391Z,9.20
2017-08-24T21:58:29.972Z,8.53
2017-08-24T22:00:57.531Z,6.80
2017-08-24T22:03:25.845Z,6.47
2017-08-24T22:05:54.480Z,7.43
2017-08-24T22:08:22.348Z,8.07
2017-08-24T22:10:51.345Z,9.03
2017-08-24T22:13:19.737Z,9.07
2017-08-24T22:15:47.921Z,8.43
2017-08-24T22:18:16.216Z,10.83
2017-08-24T22:20:45.076Z,7.77
2017-08-24T22:23:15.731Z,8.73
2017-08-24T22:25:43.243Z,7.80
2017-08-24T22:28:11.093Z,8.90
2017-08-24T22:30:38.644Z,7.90
2017-08-24T22:33:07.129Z,8.60
2017-08-24T22:35:34.801Z,9.60
2017-08-24T22:38:02.401Z,8.87
2017-08-24T22:40:29.905Z,7.97
2017-08-24T22:42:59.029Z,8.00
2017-08-24T22:45:26.631Z,7.27
2017-08-24T22:47:54.159Z,6.90
2017-08-24T22:50:22.460Z,5.70
2017-08-24T22:52:50.101Z,6.30
2017-08-24T22:55:23.133Z,6.27
2017-08-24T23:00:58.881Z,5.60
2017-08-24T23:03:32.444Z,4.90
2017-08-24T23:06:00.114Z,5.13
2017-08-24T23:08:27.843Z,5.23
2017-08-24T23:10:56.168Z,5.53
2017-08-24T23:13:23.720Z,5.97
2017-08-24T23:15:52.877Z,6.13
2017-08-24T23:18:20.639Z,5.87
2017-08-24T23:20:48.801Z,6.83
2017-08-24T23:23:17.072Z,7.20
2017-08-24T23:25:46.021Z,6.60
2017-08-24T23:28:13.750Z,6.53
2017-08-24T23:30:41.954Z,6.93
2017-08-24T23:33:10.441Z,6.63
2017-08-24T23:35:38.372Z,5.93
2017-08-24T23:38:06.989Z,6.87
2017-08-24T23:40:35.087Z,6.80
2017-08-24T23:43:02.751Z,6.37
2017-08-24T23:45:30.321Z,6.80
2017-08-24T23:47:57.865Z,5.77
2017-08-24T23:50:26.632Z,5.93
2017-08-24T23:52:54.673Z,6.13
2017-08-24T23:55:24.044Z,6.00
2017-08-24T23:57:52.604Z,7.03
